createdAt,value
2018-12-13T00:00:37.400Z,1.86
2018-12-13T00:03:05.900Z,1.95
2018-12-13T00:05:34.325Z,1.92
2018-12-13T00:08:02.814Z,1.91
2018-12-13T00:10:31.315Z,1.84
2018-12-13T00:12:59.792Z,1.85
2018-12-13T00:15:31.663Z,1.74
2018-12-13T00:18:00.389Z,1.73
2018-12-13T00:20:28.837Z,1.69
2018-12-13T00:22:57.315Z,1.65
2018-12-13T00:25:25.746Z,1.62
2018-12-13T00:27:54.240Z,1.63
2018-12-13T00:30:22.692Z,1.61
2018-12-13T00:32:51.156Z,1.58
2018-12-13T00:35:19.613Z,1.51
2018-12-13T00:37:48.094Z,1.51
2018-12-13T00:40:17.404Z,1.46
2018-12-13T00:42:45.888Z,1.46
2018-12-13T00:45:14.348Z,1.38
2018-12-13T00:47:42.816Z,1.37
2018-12-13T00:50:11.268Z,1.30
2018-12-13T00:52:39.737Z,1.26
2018-12-13T00:55:08.187Z,1.22
2018-12-13T00:57:36.666Z,1.10
2018-12-13T01:00:06.214Z,1.09
2018-12-13T01:02:34.660Z,1.03
2018-12-13T01:05:03.239Z,0.96
2018-12-13T01:07:31.728Z,0.97
2018-12-13T01:10:00.159Z,0.95
2018-12-13T01:12:28.647Z,0.87
2018-12-13T01:14:57.162Z,0.94
2018-12-13T01:17:25.648Z,0.85
2018-12-13T01:19:54.087Z,0.91
2018-12-13T01:22:22.555Z,0.92
2018-12-13T01:24:50.988Z,0.88
2018-12-13T01:27:19.455Z,0.87
2018-12-13T01:29:47.886Z,0.94
2018-12-13T01:32:16.339Z,0.91
2018-12-13T01:34:44.790Z,0.91
2018-12-13T01:37:13.265Z,0.92
2018-12-13T01:39:41.703Z,0.88
2018-12-13T01:42:10.176Z,0.94
2018-12-13T01:44:38.751Z,0.96
2018-12-13T01:47:07.235Z,0.96
2018-12-13T01:49:35.688Z,0.99
2018-12-13T01:52:04.286Z,0.95
2018-12-13T01:54:32.715Z,0.92
2018-12-13T01:57:01.209Z,0.88
2018-12-13T01:59:29.660Z,0.85
2018-12-13T02:01:58.135Z,0.92
2018-12-13T02:04:26.693Z,0.91
2018-12-13T02:06:58.742Z,0.87
2018-12-13T02:09:25.748Z,0.92
2018-12-13T02:11:54.204Z,0.93
2018-12-13T02:14:22.684Z,0.91
2018-12-13T02:16:51.136Z,0.89
2018-12-13T02:19:19.612Z,0.86
2018-12-13T02:21:48.055Z,0.90
2018-12-13T02:24:16.536Z,0.97
2018-12-13T02:26:44.990Z,1.00
2018-12-13T02:29:13.467Z,0.97
2018-12-13T02:31:41.924Z,0.94
2018-12-13T02:34:10.405Z,0.90
2018-12-13T02:36:39.005Z,0.80
2018-12-13T02:39:07.670Z,0.79
2018-12-13T02:41:36.146Z,0.69
2018-12-13T02:44:08.983Z,0.67
2018-12-13T02:46:38.218Z,0.71
2018-12-13T02:49:09.245Z,0.74
2018-12-13T02:51:37.679Z,0.79
2018-12-13T02:54:06.172Z,0.77
2018-12-13T02:56:34.621Z,0.73
2018-12-13T02:59:03.108Z,0.67
2018-12-13T03:01:31.548Z,0.65
2018-12-13T03:04:00.015Z,0.67
2018-12-13T03:06:28.454Z,0.64
2018-12-13T03:08:56.944Z,0.66
2018-12-13T03:11:25.398Z,0.69
2018-12-13T03:13:54.011Z,0.66
2018-12-13T03:16:22.480Z,0.62
2018-12-13T03:18:51.084Z,0.54
2018-12-13T03:21:19.546Z,0.57
2018-12-13T03:23:48.020Z,0.51
2018-12-13T03:26:16.464Z,0.52
2018-12-13T03:28:44.945Z,0.57
2018-12-13T03:31:13.391Z,0.59
2018-12-13T03:33:41.901Z,0.55
2018-12-13T03:36:10.348Z,0.52
2018-12-13T03:38:38.836Z,0.44
2018-12-13T03:41:07.309Z,0.50
2018-12-13T03:43:35.792Z,0.54
2018-12-13T03:46:04.235Z,0.54
2018-12-13T03:48:32.736Z,0.46
2018-12-13T03:51:01.176Z,0.47
2018-12-13T03:53:29.653Z,0.44
2018-12-13T03:55:58.093Z,0.48
2018-12-13T03:58:26.578Z,0.45
2018-12-13T04:00:55.040Z,0.49
2018-12-13T04:03:23.538Z,0.46
2018-12-13T04:05:51.972Z,0.45
2018-12-13T04:08:20.454Z,0.42
2018-12-13T04:10:48.905Z,0.40
2018-12-13T04:13:17.396Z,0.43
2018-12-13T04:15:45.841Z,0.41
2018-12-13T04:18:14.317Z,0.41
2018-12-13T04:20:42.839Z,0.46
2018-12-13T04:23:11.394Z,0.53
2018-12-13T04:25:39.859Z,0.56
2018-12-13T04:28:08.340Z,0.59
2018-12-13T04:30:36.781Z,0.52
2018-12-13T04:33:05.305Z,0.58
2018-12-13T04:35:33.877Z,0.59
2018-12-13T04:38:02.386Z,0.69
2018-12-13T04:40:30.849Z,0.71
2018-12-13T04:42:59.281Z,0.71
2018-12-13T04:45:27.885Z,0.74
2018-12-13T04:47:56.336Z,0.73
2018-12-13T04:50:24.815Z,0.71
2018-12-13T04:52:53.479Z,0.79
2018-12-13T04:55:21.946Z,0.80
2018-12-13T04:57:50.409Z,0.75
2018-12-13T05:00:18.887Z,0.80
2018-12-13T05:02:47.351Z,0.77
2018-12-13T05:05:15.839Z,0.78
2018-12-13T05:07:44.280Z,0.74
2018-12-13T05:10:22.634Z,0.75
2018-12-13T05:12:51.060Z,0.71
2018-12-13T05:15:19.558Z,0.77
2018-12-13T05:17:48.016Z,0.75
2018-12-13T05:20:16.502Z,0.77
2018-12-13T05:22:44.957Z,0.78
2018-12-13T05:25:13.429Z,0.82
2018-12-13T05:27:42.097Z,0.77
2018-12-13T05:30:10.260Z,0.82
2018-12-13T05:32:38.712Z,0.80
2018-12-13T05:35:07.218Z,0.86
2018-12-13T05:37:35.663Z,0.78
2018-12-13T05:40:04.664Z,0.73
2018-12-13T05:42:33.113Z,0.71
2018-12-13T05:45:01.575Z,0.65
2018-12-13T05:47:30.037Z,0.71
2018-12-13T05:49:58.521Z,0.74
2018-12-13T05:52:26.976Z,0.71
2018-12-13T05:54:55.451Z,0.83
2018-12-13T05:57:23.888Z,0.92
2018-12-13T05:59:52.355Z,1.04
2018-12-13T06:02:20.823Z,0.96
2018-12-13T06:04:49.307Z,1.04
2018-12-13T06:07:17.775Z,1.00
2018-12-13T06:12:38.875Z,0.83
2018-12-13T06:15:07.904Z,0.86
2018-12-13T06:17:36.344Z,0.81
2018-12-13T06:20:05.368Z,0.77
2018-12-13T06:22:40.676Z,0.74
2018-12-13T06:28:01.960Z,0.62
2018-12-13T06:30:32.718Z,0.64
2018-12-13T06:33:07.003Z,0.57
2018-12-13T06:35:38.776Z,0.56
2018-12-13T06:38:07.194Z,0.49
2018-12-13T06:40:35.651Z,0.50
2018-12-13T06:43:04.083Z,0.53
2018-12-13T06:45:32.576Z,0.49
2018-12-13T06:50:56.284Z,0.48
2018-12-13T06:53:25.471Z,0.44
2018-12-13T06:55:53.936Z,0.46
2018-12-13T06:58:22.385Z,0.43
2018-12-13T07:00:50.851Z,0.42
2018-12-13T07:03:19.296Z,0.43
2018-12-13T07:05:48.053Z,0.42
2018-12-13T07:08:16.470Z,0.43
2018-12-13T07:10:44.917Z,0.46
2018-12-13T07:13:13.395Z,0.47
2018-12-13T07:15:41.860Z,0.48
2018-12-13T07:18:10.298Z,0.51
2018-12-13T07:20:38.787Z,0.56
2018-12-13T07:23:07.250Z,0.52
2018-12-13T07:25:35.709Z,0.49
2018-12-13T07:28:04.701Z,0.58
2018-12-13T07:30:33.425Z,0.55
2018-12-13T07:33:02.203Z,0.57
2018-12-13T07:35:30.795Z,0.75
2018-12-13T07:39:28.353Z,0.79
2018-12-13T07:41:56.922Z,0.85
2018-12-13T07:44:25.414Z,0.92
2018-12-13T07:46:53.842Z,1.10
2018-12-13T07:49:22.286Z,1.24
2018-12-13T07:51:50.772Z,1.37
2018-12-13T07:54:19.242Z,1.46
2018-12-13T07:56:47.820Z,1.50
2018-12-13T07:59:16.282Z,1.58
2018-12-13T08:01:44.753Z,1.59
2018-12-13T08:04:13.255Z,1.74
2018-12-13T08:06:41.743Z,1.73
2018-12-13T08:09:10.201Z,1.75
2018-12-13T08:11:39.340Z,1.82
2018-12-13T08:14:07.836Z,1.91
2018-12-13T08:19:28.713Z,2.27
2018-12-13T08:21:57.183Z,2.73
2018-12-13T08:24:25.663Z,3.01
2018-12-13T08:26:57.483Z,3.38
2018-12-13T08:29:25.933Z,3.78
2018-12-13T08:31:56.992Z,3.90
2018-12-13T08:34:25.435Z,4.09
2018-12-13T08:42:39.202Z,4.34
2018-12-13T08:48:00.330Z,4.55
2018-12-13T08:58:42.771Z,4.47
2018-12-13T09:01:11.241Z,4.59
2018-12-13T09:06:42.275Z,4.81
2018-12-13T09:09:10.766Z,5.00
2018-12-13T09:11:50.258Z,5.01
2018-12-13T09:14:18.816Z,4.77
2018-12-13T09:19:40.152Z,4.72
2018-12-13T09:22:08.646Z,4.90
2018-12-13T09:24:37.092Z,4.98
2018-12-13T09:32:26.462Z,4.78
2018-12-13T09:43:33.120Z,4.95
2018-12-13T09:46:01.600Z,4.95
2018-12-13T09:48:30.028Z,4.92
2018-12-13T09:50:58.506Z,4.96
2018-12-13T09:53:26.943Z,4.95
2018-12-13T09:55:55.400Z,5.00
2018-12-13T09:58:23.877Z,5.09
2018-12-13T10:00:52.796Z,5.17
2018-12-13T10:03:21.264Z,5.17
2018-12-13T10:05:49.703Z,5.12
2018-12-13T10:08:18.165Z,5.24
2018-12-13T10:10:46.604Z,5.29
2018-12-13T10:13:15.077Z,5.32
2018-12-13T10:15:43.526Z,5.28
2018-12-13T10:18:12.036Z,5.33
2018-12-13T10:20:40.500Z,5.46
2018-12-13T10:23:08.990Z,5.47
2018-12-13T10:25:37.451Z,5.29
2018-12-13T10:28:05.958Z,5.24
2018-12-13T10:30:34.452Z,5.34
2018-12-13T10:33:03.215Z,5.25
2018-12-13T10:35:31.655Z,5.15
2018-12-13T10:38:00.190Z,5.12
2018-12-13T10:40:28.804Z,5.09
2018-12-13T10:43:02.029Z,5.04
2018-12-13T10:48:23.169Z,4.96
2018-12-13T10:50:51.676Z,5.01
2018-12-13T10:53:25.271Z,5.01
2018-12-13T10:58:49.877Z,4.93
2018-12-13T11:04:15.607Z,4.81
2018-12-13T11:06:56.403Z,4.74
2018-12-13T11:19:05.603Z,4.67
2018-12-13T11:21:40.593Z,4.71
2018-12-13T11:24:18.311Z,4.80
2018-12-13T11:29:55.134Z,4.80
2018-12-13T11:37:36.012Z,4.82
2018-12-13T11:40:04.730Z,4.99
2018-12-13T11:42:33.179Z,5.12
2018-12-13T11:45:02.079Z,5.18
2018-12-13T11:50:27.055Z,5.27
2018-12-13T11:52:55.562Z,5.27
2018-12-13T12:01:09.670Z,5.49
2018-12-13T12:09:23.355Z,5.11
2018-12-13T12:11:52.511Z,5.09
2018-12-13T12:20:07.184Z,4.67
2018-12-13T12:28:20.112Z,4.53
2018-12-13T12:33:44.492Z,4.56
2018-12-13T12:36:12.956Z,4.54
2018-12-13T12:38:47.266Z,4.58
2018-12-13T12:41:25.445Z,4.63
2018-12-13T12:43:53.891Z,4.57
2018-12-13T12:46:26.559Z,4.59
2018-12-13T12:48:55.008Z,4.59
2018-12-13T12:51:26.844Z,4.52
2018-12-13T12:56:48.519Z,4.48
2018-12-13T12:59:17.264Z,4.41
2018-12-13T13:04:38.125Z,4.37
2018-12-13T13:07:06.572Z,4.38
2018-12-13T13:09:35.036Z,4.31
2018-12-13T13:12:03.495Z,4.29
2018-12-13T13:17:25.150Z,4.22
2018-12-13T13:19:53.623Z,4.17
2018-12-13T13:22:22.133Z,4.08
2018-12-13T13:24:50.600Z,3.98
2018-12-13T13:27:19.053Z,3.94
2018-12-13T13:34:25.161Z,3.79
2018-12-13T13:36:53.641Z,3.65
2018-12-13T13:39:23.899Z,3.56
2018-12-13T13:44:45.762Z,3.56
2018-12-13T13:47:14.279Z,3.56
2018-12-13T13:49:42.722Z,3.61
2018-12-13T13:52:11.551Z,3.52
2018-12-13T13:54:40.059Z,3.42
2018-12-13T14:00:00.218Z,3.33
2018-12-13T14:02:28.692Z,3.29
2018-12-13T14:04:57.123Z,3.24
2018-12-13T14:07:25.630Z,3.21
2018-12-13T14:12:45.328Z,3.15
2018-12-13T14:15:13.775Z,3.15
2018-12-13T14:17:42.225Z,3.07
2018-12-13T14:20:10.688Z,3.09
2018-12-13T14:22:39.200Z,3.03
2018-12-13T14:25:07.680Z,2.97
2018-12-13T14:27:36.159Z,2.88
2018-12-13T14:32:57.321Z,2.68
2018-12-13T14:35:25.784Z,2.61
2018-12-13T14:39:23.390Z,2.51
2018-12-13T14:41:51.871Z,2.17
2018-12-13T14:44:30.184Z,2.09
2018-12-13T14:47:19.235Z,1.94
2018-12-13T14:49:47.749Z,1.84
2018-12-13T14:55:09.162Z,1.63
2018-12-13T15:03:26.628Z,1.37
2018-12-13T15:05:55.067Z,1.32
2018-12-13T15:11:15.252Z,1.13
2018-12-13T15:15:52.312Z,1.07
2018-12-13T15:21:13.570Z,0.76
2018-12-13T15:26:34.711Z,0.70
2018-12-13T15:29:03.278Z,0.60
2018-12-13T15:34:24.613Z,0.49
2018-12-13T15:36:53.143Z,0.48
2018-12-13T15:53:44.767Z,0.10
2018-12-13T16:10:18.077Z,-0.17
2018-12-13T16:18:39.991Z,-0.27
2018-12-13T16:26:53.509Z,-0.39
2018-12-13T16:29:22.060Z,-0.36
2018-12-13T16:31:50.528Z,-0.37
2018-12-13T16:34:19.028Z,-0.37
2018-12-13T16:36:47.518Z,-0.41
2018-12-13T16:39:16.028Z,-0.44
2018-12-13T16:41:44.551Z,-0.43
2018-12-13T16:44:13.068Z,-0.44
2018-12-13T16:46:41.540Z,-0.46
2018-12-13T16:49:10.048Z,-0.44
2018-12-13T16:51:38.505Z,-0.46
2018-12-13T16:54:07.011Z,-0.41
2018-12-13T16:56:40.983Z,-0.44
2018-12-13T16:59:09.447Z,-0.46
2018-12-13T17:04:31.179Z,-0.49
2018-12-13T17:06:59.598Z,-0.48
2018-12-13T17:09:28.060Z,-0.48
2018-12-13T17:11:56.563Z,-0.50
2018-12-13T17:14:25.117Z,-0.54
2018-12-13T17:23:58.992Z,-0.69
2018-12-13T17:26:27.455Z,-0.74
2018-12-13T17:28:55.915Z,-0.74
2018-12-13T17:31:24.387Z,-0.80
2018-12-13T17:33:52.824Z,-0.82
2018-12-13T17:36:21.291Z,-0.78
2018-12-13T17:38:49.719Z,-0.84
2018-12-13T17:41:18.186Z,-0.91
2018-12-13T17:46:39.236Z,-0.92
2018-12-13T17:49:17.731Z,-0.96
2018-12-13T17:51:47.807Z,-0.93
2018-12-13T17:54:16.323Z,-0.92
2018-12-13T17:56:44.775Z,-0.89
2018-12-13T17:59:13.518Z,-0.95
2018-12-13T18:01:42.072Z,-0.94
2018-12-13T18:04:10.790Z,-0.99
2018-12-13T18:06:39.606Z,-0.99
2018-12-13T18:09:09.081Z,-0.99
2018-12-13T18:11:37.763Z,-1.02
2018-12-13T18:14:08.379Z,-1.03
2018-12-13T18:19:29.791Z,-0.99
2018-12-13T18:21:59.669Z,-0.93
2018-12-13T18:27:21.427Z,-0.92
2018-12-13T18:29:50.793Z,-0.92
2018-12-13T18:32:19.263Z,-0.92
2018-12-13T18:37:40.979Z,-0.96
2018-12-13T18:45:54.744Z,-1.11
2018-12-13T18:48:23.233Z,-1.13
2018-12-13T18:50:51.852Z,-1.12
2018-12-13T18:53:20.324Z,-1.01
2018-12-13T18:55:48.860Z,-0.99
2018-12-13T18:58:17.586Z,-0.96
2018-12-13T19:01:06.724Z,-0.97
2018-12-13T19:03:35.219Z,-0.97
2018-12-13T19:06:03.709Z,-1.03
2018-12-13T19:08:32.712Z,-0.98
2018-12-13T19:11:01.754Z,-0.99
2018-12-13T19:13:30.344Z,-1.06
2018-12-13T19:15:58.903Z,-1.08
2018-12-13T19:18:38.516Z,-1.15
2018-12-13T19:21:07.952Z,-1.20
2018-12-13T19:23:36.420Z,-1.15
2018-12-13T19:26:14.556Z,-1.14
2018-12-13T19:28:43.150Z,-1.05
2018-12-13T19:31:12.494Z,-1.01
2018-12-13T19:36:34.883Z,-0.94
2018-12-13T19:41:54.678Z,-0.93
2018-12-13T19:44:25.427Z,-0.95
2018-12-13T19:49:46.644Z,-0.95
2018-12-13T19:55:08.903Z,-0.92
2018-12-13T19:57:39.815Z,-0.86
2018-12-13T20:00:09.764Z,-0.88
2018-12-13T20:02:40.804Z,-0.91
2018-12-13T20:10:54.865Z,-1.13
2018-12-13T20:13:36.031Z,-1.12
2018-12-13T20:18:57.687Z,-1.15
2018-12-13T20:21:26.299Z,-1.07
2018-12-13T20:23:54.739Z,-1.05
2018-12-13T20:26:23.212Z,-0.97
2018-12-13T20:28:51.715Z,-0.94
2018-12-13T20:31:20.255Z,-0.90
2018-12-13T20:33:48.720Z,-0.90
2018-12-13T20:36:17.199Z,-0.82
2018-12-13T20:39:01.854Z,-0.83
2018-12-13T20:41:30.400Z,-0.72
2018-12-13T20:43:58.892Z,-0.74
2018-12-13T20:46:27.431Z,-0.72
2018-12-13T20:48:55.867Z,-0.71
2018-12-13T20:51:24.369Z,-0.68
2018-12-13T20:57:03.328Z,-0.72
2018-12-13T20:59:31.819Z,-0.72
2018-12-13T21:02:00.266Z,-0.72
2018-12-13T21:04:29.391Z,-0.71
2018-12-13T21:07:03.195Z,-0.73
2018-12-13T21:09:31.659Z,-0.70
2018-12-13T21:12:00.176Z,-0.78
2018-12-13T21:20:13.876Z,-0.94
2018-12-13T21:22:42.433Z,-1.01
2018-12-13T21:25:10.943Z,-1.03
2018-12-13T21:27:39.497Z,-1.00
2018-12-13T21:30:08.442Z,-1.04
2018-12-13T21:38:22.245Z,-1.35
2018-12-13T21:40:50.748Z,-1.42
2018-12-13T21:43:19.260Z,-1.45
2018-12-13T21:48:40.998Z,-1.56
2018-12-13T21:51:12.403Z,-1.59
2018-12-13T21:53:40.875Z,-1.62
2018-12-13T21:56:09.400Z,-1.64
2018-12-13T21:58:37.960Z,-1.66
2018-12-13T22:01:06.428Z,-1.71
2018-12-13T22:03:34.880Z,-1.70
2018-12-13T22:06:03.353Z,-1.70
2018-12-13T22:08:31.823Z,-1.71
2018-12-13T22:11:00.263Z,-1.77
2018-12-13T22:16:21.379Z,-1.88
2018-12-13T22:21:45.858Z,-1.91
2018-12-13T22:24:14.320Z,-1.88
2018-12-13T22:26:43.271Z,-1.90
2018-12-13T22:29:11.760Z,-1.88
2018-12-13T22:31:40.381Z,-1.90
2018-12-13T22:34:08.835Z,-1.90
2018-12-13T22:36:37.605Z,-1.89
2018-12-13T22:39:07.551Z,-1.86
2018-12-13T22:41:36.066Z,-1.84
2018-12-13T22:44:04.637Z,-1.83
2018-12-13T22:46:33.247Z,-1.91
2018-12-13T22:49:01.865Z,-1.85
2018-12-13T22:54:23.860Z,-1.95
2018-12-13T22:56:52.380Z,-1.94
2018-12-13T22:59:20.872Z,-1.95
2018-12-13T23:01:49.385Z,-1.99
2018-12-13T23:07:10.839Z,-2.00
2018-12-13T23:12:31.796Z,-2.05
2018-12-13T23:15:00.252Z,-2.04
2018-12-13T23:24:02.339Z,-2.12
2018-12-13T23:26:31.247Z,-2.10
2018-12-13T23:28:59.742Z,-2.03
2018-12-13T23:31:40.347Z,-1.96
2018-12-13T23:34:08.835Z,-1.93
2018-12-13T23:36:37.464Z,-1.83
2018-12-13T23:39:06.221Z,-1.73
2018-12-13T23:41:39.200Z,-1.67
2018-12-13T23:52:48.999Z,-1.55
2018-12-13T23:55:18.165Z,-1.47
